createdAt,value
2019-05-25T00:00:39.126Z,97710.47
2019-05-25T00:01:42.079Z,97710.47
2019-05-25T00:02:45.506Z,97714.66
2019-05-25T00:03:49.689Z,97714.66
2019-05-25T00:04:53.680Z,97712.42
2019-05-25T00:05:56.478Z,97708.73
2019-05-25T00:06:59.986Z,97708.73
2019-05-25T00:08:02.889Z,97701.38
2019-05-25T00:09:07.180Z,97708.78
2019-05-25T00:10:10.275Z,97708.78
2019-05-25T00:11:14.020Z,97711.70
2019-05-25T00:12:16.913Z,97711.23
2019-05-25T00:13:20.304Z,97715.60
2019-05-25T00:14:23.109Z,97721.66
2019-05-25T00:15:26.475Z,97721.66
2019-05-25T00:16:31.521Z,97719.81
2019-05-25T00:17:38.173Z,97720.77
2019-05-25T00:18:41.055Z,97720.77
2019-05-25T00:19:44.497Z,97716.07
2019-05-25T00:20:48.626Z,97719.72
2019-05-25T00:21:52.011Z,97718.07
2019-05-25T00:22:56.641Z,97722.05
2019-05-25T00:24:11.774Z,97722.05
2019-05-25T00:25:04.531Z,97717.91
2019-05-25T00:26:10.931Z,97719.14
2019-05-25T00:27:22.074Z,97719.14
2019-05-25T00:28:27.271Z,97711.38
2019-05-25T00:29:30.375Z,97713.80
2019-05-25T00:30:33.762Z,97711.46
2019-05-25T00:31:36.579Z,97715.02
2019-05-25T00:32:39.991Z,97715.19
2019-05-25T00:33:42.833Z,97710.94
2019-05-25T00:34:46.218Z,97715.19
2019-05-25T00:35:49.341Z,97714.28
2019-05-25T00:36:52.859Z,97713.50
2019-05-25T00:37:55.727Z,97713.09
2019-05-25T00:38:59.182Z,97703.84
2019-05-25T00:40:05.013Z,97716.70
2019-05-25T00:41:08.401Z,97710.87
2019-05-25T00:42:11.960Z,97710.87
2019-05-25T00:43:15.352Z,97710.00
2019-05-25T00:44:18.224Z,97714.92
2019-05-25T00:45:22.022Z,97706.08
2019-05-25T00:46:25.263Z,97715.74
2019-05-25T00:47:28.696Z,97715.74
2019-05-25T00:48:31.806Z,97714.65
2019-05-25T00:49:35.185Z,97714.65
2019-05-25T00:50:38.055Z,97715.30
2019-05-25T00:51:42.749Z,97715.52
2019-05-25T00:52:45.564Z,97715.52
2019-05-25T00:53:48.965Z,97717.57
2019-05-25T00:54:52.215Z,97717.57
2019-05-25T00:55:55.554Z,97721.72
2019-05-25T00:58:26.082Z,97716.03
2019-05-25T00:59:29.465Z,97718.45
2019-05-25T01:00:34.933Z,97718.95
2019-05-25T01:01:38.635Z,97717.42
2019-05-25T01:02:44.516Z,97714.83
2019-05-25T01:03:48.374Z,97714.83
2019-05-25T01:04:51.227Z,97716.23
2019-05-25T01:05:54.676Z,97714.73
2019-05-25T01:06:57.480Z,97718.55
2019-05-25T01:08:01.210Z,97718.41
2019-05-25T01:09:06.326Z,97721.02
2019-05-25T01:10:09.704Z,97721.31
2019-05-25T01:11:12.545Z,97712.98
2019-05-25T01:12:15.995Z,97712.23
2019-05-25T01:13:18.900Z,97715.28
2019-05-25T01:14:22.629Z,97718.61
2019-05-25T01:15:25.826Z,97718.97
2019-05-25T01:16:29.307Z,97716.59
2019-05-25T01:17:32.593Z,97720.69
2019-05-25T01:18:36.109Z,97720.69
2019-05-25T01:19:38.970Z,97713.62
2019-05-25T01:20:42.714Z,97716.22
2019-05-25T01:21:45.973Z,97720.95
2019-05-25T01:22:49.466Z,97720.95
2019-05-25T01:23:55.493Z,97713.13
2019-05-25T01:25:01.867Z,97711.36
2019-05-25T01:26:04.780Z,97711.36
2019-05-25T01:27:08.971Z,97707.09
2019-05-25T01:28:11.900Z,97707.25
2019-05-25T01:29:17.286Z,97707.25
2019-05-25T01:30:20.302Z,97710.12
2019-05-25T01:31:23.685Z,97710.12
2019-05-25T01:32:26.585Z,97714.89
2019-05-25T01:33:30.515Z,97715.09
2019-05-25T01:34:33.307Z,97704.64
2019-05-25T01:35:36.671Z,97717.77
2019-05-25T01:36:39.454Z,97716.95
2019-05-25T01:37:42.833Z,97723.97
2019-05-25T01:38:45.715Z,97719.88
2019-05-25T01:39:49.383Z,97714.61
2019-05-25T01:40:53.656Z,97705.65
2019-05-25T01:41:57.021Z,97713.27
2019-05-25T01:42:59.879Z,97706.41
2019-05-25T01:44:03.579Z,97715.09
2019-05-25T01:45:06.405Z,97710.51
2019-05-25T01:46:11.610Z,97716.06
2019-05-25T01:47:14.403Z,97720.70
2019-05-25T01:48:17.823Z,97716.97
2019-05-25T01:49:20.716Z,97716.97
2019-05-25T01:50:24.119Z,97719.31
2019-05-25T01:51:26.901Z,97714.53
2019-05-25T01:52:30.324Z,97714.53
2019-05-25T01:53:33.113Z,97722.48
2019-05-25T01:54:36.566Z,97726.12
2019-05-25T01:55:39.780Z,97719.95
2019-05-25T01:56:43.192Z,97721.08
2019-05-25T01:57:46.367Z,97719.50
2019-05-25T01:58:50.117Z,97711.28
2019-05-25T01:59:52.975Z,97721.30
2019-05-25T02:00:56.377Z,97715.71
2019-05-25T02:01:59.187Z,97716.84
2019-05-25T02:03:02.612Z,97723.81
2019-05-25T02:04:05.500Z,97722.02
2019-05-25T02:05:09.172Z,97719.86
2019-05-25T02:06:12.037Z,97719.86
2019-05-25T02:07:15.445Z,97723.66
2019-05-25T02:08:18.211Z,97728.19
2019-05-25T02:09:22.247Z,97728.19
2019-05-25T02:10:25.675Z,97725.80
2019-05-25T02:11:29.621Z,97723.84
2019-05-25T02:12:32.464Z,97723.84
2019-05-25T02:13:35.846Z,97729.68
2019-05-25T02:14:38.732Z,97729.68
2019-05-25T02:15:42.205Z,97738.81
2019-05-25T02:16:47.845Z,97735.50
2019-05-25T02:17:51.508Z,97727.78
2019-05-25T02:18:54.312Z,97725.39
2019-05-25T02:19:57.887Z,97725.39
2019-05-25T02:21:00.680Z,97728.11
2019-05-25T02:22:04.151Z,97730.61
2019-05-25T02:23:06.969Z,97730.61
2019-05-25T02:25:47.891Z,97734.95
2019-05-25T02:26:51.330Z,97730.63
2019-05-25T02:27:54.109Z,97731.20
2019-05-25T02:28:57.476Z,97731.20
2019-05-25T02:30:00.486Z,97729.03
2019-05-25T02:31:03.862Z,97729.03
2019-05-25T02:32:06.976Z,97731.33
2019-05-25T02:33:10.382Z,97735.86
2019-05-25T02:34:13.197Z,97736.67
2019-05-25T02:35:16.668Z,97738.16
2019-05-25T02:36:20.937Z,97739.29
2019-05-25T02:37:24.514Z,97741.30
2019-05-25T02:38:27.624Z,97741.52
2019-05-25T02:39:31.005Z,97737.32
2019-05-25T02:40:34.246Z,97737.33
2019-05-25T02:41:37.642Z,97742.01
2019-05-25T02:42:40.686Z,97739.82
2019-05-25T02:43:44.126Z,97742.00
2019-05-25T02:44:47.209Z,97742.00
2019-05-25T02:45:50.795Z,97739.38
2019-05-25T02:46:55.964Z,97741.66
2019-05-25T02:47:59.900Z,97743.92
2019-05-25T02:49:03.073Z,97744.72
2019-05-25T02:50:06.511Z,97745.97
2019-05-25T02:51:09.808Z,97741.42
2019-05-25T02:52:13.306Z,97739.64
2019-05-25T02:53:18.618Z,97743.84
2019-05-25T02:54:21.206Z,97748.72
2019-05-25T02:55:33.647Z,97743.27
2019-05-25T02:56:29.745Z,97743.27
2019-05-25T02:57:32.934Z,97749.38
2019-05-25T02:58:36.681Z,97743.91
2019-05-25T02:59:39.946Z,97740.69
2019-05-25T03:00:43.337Z,97742.86
2019-05-25T03:01:46.189Z,97743.53
2019-05-25T03:02:52.240Z,97741.17
2019-05-25T03:03:55.324Z,97738.11
2019-05-25T03:04:58.821Z,97742.77
2019-05-25T03:06:01.787Z,97745.50
2019-05-25T03:07:05.280Z,97738.80
2019-05-25T03:08:10.361Z,97738.89
2019-05-25T03:09:13.759Z,97742.30
2019-05-25T03:10:21.147Z,97743.08
2019-05-25T03:11:39.902Z,97743.08
2019-05-25T03:12:42.755Z,97745.70
2019-05-25T03:13:47.712Z,97744.09
2019-05-25T03:14:50.468Z,97748.29
2019-05-25T03:15:54.366Z,97745.91
2019-05-25T03:16:57.452Z,97746.89
2019-05-25T03:18:01.914Z,97740.29
2019-05-25T03:19:04.723Z,97740.29
2019-05-25T03:20:08.170Z,97749.50
2019-05-25T03:21:11.404Z,97745.55
2019-05-25T03:22:14.854Z,97750.52
2019-05-25T03:23:18.537Z,97748.16
2019-05-25T03:24:22.303Z,97751.81
2019-05-25T03:25:25.297Z,97755.90
2019-05-25T03:26:28.688Z,97753.52
2019-05-25T03:27:31.685Z,97753.30
2019-05-25T03:28:35.073Z,97758.50
2019-05-25T03:29:39.315Z,97758.50
2019-05-25T03:30:42.689Z,97764.95
2019-05-25T03:31:45.484Z,97765.51
2019-05-25T03:32:50.135Z,97766.55
2019-05-25T03:33:53.392Z,97767.11
2019-05-25T03:34:56.781Z,97765.51
2019-05-25T03:35:59.897Z,97767.55
2019-05-25T03:37:03.436Z,97767.66
2019-05-25T03:38:06.351Z,97767.66
2019-05-25T03:39:09.707Z,97769.13
2019-05-25T03:40:12.525Z,97768.31
2019-05-25T03:41:16.287Z,97776.28
2019-05-25T03:42:19.826Z,97769.84
2019-05-25T03:43:23.297Z,97768.84
2019-05-25T03:44:26.097Z,97769.51
2019-05-25T03:45:29.471Z,97773.16
2019-05-25T03:46:32.238Z,97777.79
2019-05-25T03:47:35.759Z,97772.11
2019-05-25T03:48:38.824Z,97772.11
2019-05-25T03:49:42.260Z,97772.55
2019-05-25T03:50:45.458Z,97777.69
2019-05-25T03:51:48.888Z,97773.38
2019-05-25T03:52:51.714Z,97769.08
2019-05-25T03:53:55.104Z,97769.08
2019-05-25T03:54:58.536Z,97771.14
2019-05-25T03:56:05.998Z,97771.14
2019-05-25T03:57:06.454Z,97771.59
2019-05-25T03:58:09.830Z,97771.59
2019-05-25T03:59:15.046Z,97764.19
2019-05-25T04:00:18.423Z,97780.89
2019-05-25T04:01:21.535Z,97775.75
2019-05-25T04:02:27.889Z,97775.75
2019-05-25T04:03:30.785Z,97780.38
2019-05-25T04:04:34.242Z,97779.86
2019-05-25T04:05:37.081Z,97780.30
2019-05-25T04:06:40.491Z,97782.77
2019-05-25T04:07:45.203Z,97779.84
2019-05-25T04:08:48.651Z,97782.22
2019-05-25T04:09:51.431Z,97787.36
2019-05-25T04:10:54.913Z,97785.21
2019-05-25T04:11:57.737Z,97784.74
2019-05-25T04:13:01.186Z,97790.29
2019-05-25T04:14:04.358Z,97788.44
2019-05-25T04:15:07.809Z,97786.78
2019-05-25T04:16:11.088Z,97788.63
2019-05-25T04:17:14.714Z,97788.63
2019-05-25T04:18:17.932Z,97790.22
2019-05-25T04:19:21.784Z,97790.33
2019-05-25T04:20:25.989Z,97790.37
2019-05-25T04:21:29.381Z,97788.83
2019-05-25T04:22:32.212Z,97792.16
2019-05-25T04:23:35.585Z,97792.16
2019-05-25T04:24:38.854Z,97792.91
2019-05-25T04:25:42.314Z,97792.91
2019-05-25T04:26:45.801Z,97799.33
2019-05-25T04:27:49.158Z,97790.61
2019-05-25T04:28:52.338Z,97790.61
2019-05-25T04:29:55.758Z,97794.25
2019-05-25T04:30:58.973Z,97795.63
2019-05-25T04:32:02.399Z,97800.19
2019-05-25T04:33:05.526Z,97800.19
2019-05-25T04:34:09.279Z,97793.59
2019-05-25T04:35:12.179Z,97793.94
2019-05-25T04:36:15.543Z,97800.88
2019-05-25T04:37:18.786Z,97800.88
2019-05-25T04:38:22.165Z,97801.42
2019-05-25T04:39:25.250Z,97807.81
2019-05-25T04:40:28.716Z,97807.61
2019-05-25T04:41:33.304Z,97805.12
2019-05-25T04:42:36.738Z,97809.89
2019-05-25T04:43:39.538Z,97813.87
2019-05-25T04:44:43.321Z,97813.87
2019-05-25T04:45:46.572Z,97808.05
2019-05-25T04:46:51.330Z,97809.28
2019-05-25T04:47:54.420Z,97808.39
2019-05-25T04:48:58.890Z,97811.80
2019-05-25T04:50:01.672Z,97811.72
2019-05-25T04:51:06.250Z,97806.72
2019-05-25T04:52:12.137Z,97807.06
2019-05-25T04:53:15.497Z,97807.06
2019-05-25T04:54:18.325Z,97805.97
2019-05-25T04:55:21.736Z,97805.97
2019-05-25T04:56:38.137Z,97807.61
2019-05-25T04:57:30.074Z,97811.38
2019-05-25T04:58:33.150Z,97810.05
2019-05-25T04:59:36.600Z,97810.05
2019-05-25T05:00:39.403Z,97811.01
2019-05-25T05:01:42.830Z,97806.69
2019-05-25T05:02:46.065Z,97814.77
2019-05-25T05:03:52.572Z,97816.57
2019-05-25T05:04:57.335Z,97815.01
2019-05-25T05:06:00.970Z,97818.41
2019-05-25T05:07:03.784Z,97818.41
2019-05-25T05:08:07.185Z,97816.92
2019-05-25T05:09:10.010Z,97816.70
2019-05-25T05:10:13.469Z,97818.50
2019-05-25T05:11:18.443Z,97818.50
2019-05-25T05:12:21.926Z,97822.97
2019-05-25T05:13:24.750Z,97820.55
2019-05-25T05:14:28.165Z,97820.55
2019-05-25T05:15:31.422Z,97820.09
2019-05-25T05:16:34.831Z,97820.09
2019-05-25T05:17:38.472Z,97817.13
2019-05-25T05:18:41.910Z,97824.01
2019-05-25T05:19:44.685Z,97824.01
2019-05-25T05:20:48.108Z,97819.91
2019-05-25T05:21:50.970Z,97817.55
2019-05-25T05:22:54.778Z,97817.55
2019-05-25T05:23:57.891Z,97825.57
2019-05-25T05:25:01.291Z,97825.57
2019-05-25T05:26:04.147Z,97822.05
2019-05-25T05:27:07.601Z,97826.70
2019-05-25T05:28:10.523Z,97828.66
2019-05-25T05:29:15.761Z,97828.98
2019-05-25T05:43:51.691Z,97830.33
2019-05-25T05:44:56.793Z,97826.92
2019-05-25T05:45:59.607Z,97829.30
2019-05-25T05:47:04.033Z,97820.80
2019-05-25T05:48:06.919Z,97820.80
2019-05-25T05:49:11.616Z,97823.84
2019-05-25T05:50:14.553Z,97823.84
2019-05-25T05:51:17.930Z,97823.95
2019-05-25T05:52:20.749Z,97824.20
2019-05-25T05:53:24.248Z,97825.09
2019-05-25T05:54:27.098Z,97825.09
2019-05-25T05:55:30.798Z,97822.48
2019-05-25T05:56:34.086Z,97823.53
2019-05-25T05:57:37.490Z,97820.10
2019-05-25T05:58:40.475Z,97820.10
2019-05-25T05:59:45.219Z,97817.54
2019-05-25T06:00:49.112Z,97803.45
2019-05-25T06:01:52.767Z,97814.14
2019-05-25T06:02:55.697Z,97814.14
2019-05-25T06:03:59.156Z,97817.72
2019-05-25T06:05:02.685Z,97819.44
2019-05-25T06:06:06.451Z,97819.44
2019-05-25T06:07:09.306Z,97824.34
2019-05-25T06:08:13.122Z,97828.20
2019-05-25T06:09:16.621Z,97828.20
2019-05-25T06:10:20.045Z,97815.34
2019-05-25T06:11:22.993Z,97815.34
2019-05-25T06:12:26.409Z,97815.23
2019-05-25T06:13:29.278Z,97815.23
2019-05-25T06:14:34.559Z,97824.62
2019-05-25T06:15:37.380Z,97820.10
2019-05-25T06:16:40.802Z,97820.10
2019-05-25T06:17:43.610Z,97827.63
2019-05-25T06:18:47.050Z,97828.06
2019-05-25T06:19:49.887Z,97828.06
2019-05-25T06:20:53.628Z,97826.38
2019-05-25T06:21:56.423Z,97831.56
2019-05-25T06:23:00.142Z,97831.92
2019-05-25T06:24:02.979Z,97821.08
2019-05-25T06:25:06.890Z,97833.28
2019-05-25T06:26:09.710Z,97834.53
2019-05-25T06:27:26.357Z,97839.88
2019-05-25T06:28:21.634Z,97839.88
2019-05-25T06:29:22.947Z,97837.83
2019-05-25T06:30:25.893Z,97837.83
2019-05-25T06:31:29.315Z,97836.42
2019-05-25T06:32:32.639Z,97839.06
2019-05-25T06:33:36.322Z,97830.34
2019-05-25T06:34:40.601Z,97835.86
2019-05-25T06:35:44.062Z,97835.86
2019-05-25T06:36:48.123Z,97837.71
2019-05-25T06:37:51.534Z,97834.67
2019-05-25T06:38:58.898Z,97834.95
2019-05-25T06:40:02.397Z,97834.38
2019-05-25T06:41:08.422Z,97839.44
2019-05-25T06:42:10.533Z,97837.11
2019-05-25T06:43:13.345Z,97842.09
2019-05-25T06:44:16.786Z,97836.99
2019-05-25T06:45:20.400Z,97831.95
2019-05-25T06:46:23.794Z,97841.12
2019-05-25T06:47:27.073Z,97841.12
2019-05-25T06:48:30.455Z,97836.47
2019-05-25T06:49:36.291Z,97836.47
2019-05-25T06:50:39.787Z,97839.02
2019-05-25T06:51:42.926Z,97838.98
2019-05-25T06:52:46.418Z,97840.69
2019-05-25T06:53:49.493Z,97840.69
2019-05-25T06:54:53.031Z,97843.23
2019-05-25T06:55:55.845Z,97842.56
2019-05-25T06:56:59.369Z,97834.52
2019-05-25T06:58:02.525Z,97840.17
2019-05-25T06:59:05.960Z,97838.29
2019-05-25T07:00:08.873Z,97841.33
2019-05-25T07:01:12.758Z,97839.45
2019-05-25T07:02:15.561Z,97838.08
2019-05-25T07:03:19.086Z,97847.59
2019-05-25T07:04:22.247Z,97838.45
2019-05-25T07:05:25.851Z,97845.16
2019-05-25T07:06:31.445Z,97845.16
2019-05-25T07:07:35.121Z,97850.88
2019-05-25T07:08:40.538Z,97852.47
2019-05-25T07:09:44.087Z,97846.91
2019-05-25T07:10:47.622Z,97853.69
2019-05-25T07:11:51.063Z,97856.17
2019-05-25T07:12:53.881Z,97856.16
2019-05-25T07:13:57.257Z,97853.45
2019-05-25T07:15:05.883Z,97854.52
2019-05-25T07:16:12.927Z,97862.17
2019-05-25T07:17:16.407Z,97862.17
2019-05-25T07:18:19.910Z,97862.25
2019-05-25T07:19:22.771Z,97858.67
2019-05-25T07:20:30.199Z,97860.41
2019-05-25T07:21:33.104Z,97857.38
2019-05-25T07:22:38.098Z,97858.42
2019-05-25T07:23:41.252Z,97863.92
2019-05-25T07:24:44.672Z,97860.95
2019-05-25T07:25:47.649Z,97860.95
2019-05-25T07:26:54.070Z,97863.91
2019-05-25T07:28:02.443Z,97864.75
2019-05-25T07:29:05.902Z,97864.75
2019-05-25T07:30:10.900Z,97869.34
2019-05-25T07:31:14.469Z,97869.05
2019-05-25T07:32:17.274Z,97869.22
2019-05-25T07:33:24.877Z,97869.22
2019-05-25T07:34:28.560Z,97869.06
2019-05-25T07:35:32.952Z,97859.20
2019-05-25T07:36:36.383Z,97876.13
2019-05-25T07:37:39.790Z,97874.03
2019-05-25T07:38:42.585Z,97874.81
2019-05-25T07:39:45.990Z,97882.00
2019-05-25T07:40:48.967Z,97876.74
2019-05-25T07:41:52.999Z,97876.74
2019-05-25T07:43:02.841Z,97879.16
2019-05-25T07:44:06.048Z,97880.16
2019-05-25T07:45:08.996Z,97875.61
2019-05-25T07:46:12.342Z,97878.97
2019-05-25T07:47:15.665Z,97874.98
2019-05-25T07:48:22.741Z,97861.39
2019-05-25T07:49:25.955Z,97879.52
2019-05-25T07:50:29.774Z,97874.23
2019-05-25T07:51:33.066Z,97876.86
2019-05-25T07:52:36.520Z,97876.86
2019-05-25T07:53:39.360Z,97876.14
2019-05-25T07:54:42.824Z,97877.55
2019-05-25T07:55:46.067Z,97872.78
2019-05-25T07:56:51.941Z,97877.86
2019-05-25T07:57:54.818Z,97877.86
2019-05-25T07:58:58.938Z,97872.13
2019-05-25T08:00:01.854Z,97877.08
2019-05-25T08:01:05.244Z,97871.84
2019-05-25T08:02:08.345Z,97872.80
2019-05-25T08:03:12.049Z,97870.80
2019-05-25T08:04:14.867Z,97870.80
2019-05-25T08:05:18.394Z,97868.34
2019-05-25T08:06:21.652Z,97872.44
2019-05-25T08:07:27.974Z,97876.28
2019-05-25T08:08:39.938Z,97871.69
2019-05-25T08:09:43.339Z,97871.69
2019-05-25T08:10:46.194Z,97868.77
2019-05-25T08:11:51.039Z,97868.77
2019-05-25T08:12:53.915Z,97880.27
2019-05-25T08:13:57.676Z,97872.69
2019-05-25T08:15:00.499Z,97872.69
2019-05-25T08:16:03.908Z,97875.88
2019-05-25T08:17:06.846Z,97875.16
2019-05-25T08:18:10.257Z,97872.83
2019-05-25T08:19:13.532Z,97873.00
2019-05-25T08:20:17.279Z,97873.00
2019-05-25T08:21:25.341Z,97870.53
2019-05-25T08:22:35.387Z,97872.76
2019-05-25T08:23:37.484Z,97873.13
2019-05-25T08:24:45.231Z,97882.72
2019-05-25T08:25:53.530Z,97869.16
2019-05-25T08:27:01.159Z,97869.16
2019-05-25T08:28:01.365Z,97876.52
2019-05-25T08:29:07.026Z,97873.25
2019-05-25T08:30:09.833Z,97873.25
2019-05-25T08:31:13.332Z,97876.15
2019-05-25T08:32:16.464Z,97876.15
2019-05-25T08:33:20.757Z,97880.11
2019-05-25T08:34:23.556Z,97868.53
2019-05-25T08:35:29.707Z,97875.02
2019-05-25T08:36:32.601Z,97881.91
2019-05-25T08:37:36.015Z,97866.66
2019-05-25T08:38:39.165Z,97866.66
2019-05-25T08:39:45.203Z,97877.70
2019-05-25T08:40:47.783Z,97877.70
2019-05-25T08:41:51.557Z,97883.06
2019-05-25T08:42:54.388Z,97879.08
2019-05-25T08:43:57.865Z,97879.08
2019-05-25T08:45:01.108Z,97872.55
2019-05-25T08:46:04.660Z,97873.59
2019-05-25T08:47:07.623Z,97863.47
2019-05-25T08:48:11.007Z,97863.47
2019-05-25T08:49:13.931Z,97875.38
2019-05-25T08:50:17.310Z,97869.81
2019-05-25T08:51:25.710Z,97869.81
2019-05-25T08:52:29.151Z,97863.35
2019-05-25T08:53:41.285Z,97863.35
2019-05-25T08:54:41.204Z,97875.40
2019-05-25T08:55:44.164Z,97856.23
2019-05-25T08:57:02.850Z,97864.75
2019-05-25T08:58:06.950Z,97867.75
2019-05-25T08:59:13.277Z,97862.38
2019-05-25T09:00:25.219Z,97869.42
2019-05-25T09:01:28.600Z,97869.42
2019-05-25T09:02:32.998Z,97867.66
2019-05-25T09:03:38.426Z,97862.61
2019-05-25T09:04:46.819Z,97860.82
2019-05-25T09:05:50.356Z,97856.58
2019-05-25T09:06:53.304Z,97861.38
2019-05-25T09:07:56.731Z,97857.22
2019-05-25T09:08:59.656Z,97862.45
2019-05-25T09:10:03.414Z,97863.06
2019-05-25T09:11:06.345Z,97858.18
2019-05-25T09:12:09.745Z,97858.18
2019-05-25T09:13:14.099Z,97866.38
2019-05-25T09:14:17.526Z,97864.19
2019-05-25T09:15:20.334Z,97869.27
2019-05-25T09:16:24.214Z,97870.41
2019-05-25T09:17:31.326Z,97871.66
2019-05-25T09:18:32.107Z,97872.88
2019-05-25T09:19:34.935Z,97868.48
2019-05-25T09:20:38.319Z,97877.03
2019-05-25T09:21:41.191Z,97877.03
2019-05-25T09:22:50.340Z,97874.49
2019-05-25T09:23:53.375Z,97866.13
2019-05-25T09:24:56.754Z,97872.89
2019-05-25T09:26:00.192Z,97881.19
2019-05-25T09:27:03.757Z,97873.95
2019-05-25T09:28:06.605Z,97873.95
2019-05-25T09:29:12.940Z,97878.50
2019-05-25T09:30:15.776Z,97877.27
2019-05-25T09:31:19.228Z,97877.27
2019-05-25T09:32:24.648Z,97875.52
2019-05-25T09:33:33.171Z,97879.23
2019-05-25T09:34:38.837Z,97881.66
2019-05-25T09:35:45.046Z,97881.66
2019-05-25T09:36:48.269Z,97883.82
2019-05-25T09:37:51.576Z,97883.82
2019-05-25T09:38:54.236Z,97880.23
2019-05-25T09:39:57.839Z,97880.23
2019-05-25T09:41:00.623Z,97885.25
2019-05-25T09:42:08.649Z,97884.88
2019-05-25T09:43:12.691Z,97884.60
2019-05-25T09:44:16.205Z,97878.12
2019-05-25T09:45:19.098Z,97878.48
2019-05-25T09:46:24.118Z,97881.30
2019-05-25T09:47:27.110Z,97876.30
2019-05-25T09:48:33.264Z,97880.59
2019-05-25T09:49:40.523Z,97877.77
2019-05-25T09:50:51.415Z,97884.95
2019-05-25T09:51:54.757Z,97884.95
2019-05-25T09:52:58.430Z,97875.19
2019-05-25T09:54:01.373Z,97883.77
2019-05-25T09:55:05.236Z,97883.77
2019-05-25T09:56:08.477Z,97883.77
2019-05-25T09:57:12.301Z,97887.20
2019-05-25T09:58:15.599Z,97876.28
2019-05-25T09:59:20.584Z,97875.46
2019-05-25T10:00:26.758Z,97885.52
2019-05-25T10:01:30.870Z,97879.88
2019-05-25T10:02:37.304Z,97886.45
2019-05-25T10:03:40.974Z,97882.94
2019-05-25T10:04:47.621Z,97886.64
2019-05-25T10:05:51.036Z,97886.64
2019-05-25T10:06:53.903Z,97887.13
2019-05-25T10:07:59.376Z,97883.97
2019-05-25T10:09:02.250Z,97888.92
2019-05-25T10:10:07.836Z,97884.34
2019-05-25T10:11:13.417Z,97880.85
2019-05-25T10:12:18.876Z,97876.72
2019-05-25T10:13:24.836Z,97876.72
2019-05-25T10:14:31.368Z,97876.15
2019-05-25T10:15:34.267Z,97876.15
2019-05-25T10:16:41.402Z,97891.48
2019-05-25T10:17:44.469Z,97884.74
2019-05-25T10:18:47.873Z,97883.19
2019-05-25T10:19:50.954Z,97884.95
2019-05-25T10:20:59.899Z,97887.73
2019-05-25T10:22:02.605Z,97884.75
2019-05-25T10:23:06.091Z,97888.50
2019-05-25T10:24:08.931Z,97889.50
2019-05-25T10:25:14.623Z,97881.38
2019-05-25T10:26:23.300Z,97888.33
2019-05-25T10:27:27.502Z,97876.28
2019-05-25T10:28:30.355Z,97876.28
2019-05-25T10:29:37.100Z,97888.13
2019-05-25T10:42:55.752Z,97869.32
2019-05-25T10:44:01.427Z,97879.05
2019-05-25T10:45:04.035Z,97876.45
2019-05-25T10:46:08.242Z,97876.45
2019-05-25T10:47:12.255Z,97872.90
2019-05-25T10:48:16.293Z,97876.59
2019-05-25T10:49:31.860Z,97878.30
2019-05-25T10:50:35.300Z,97871.34
2019-05-25T10:51:38.351Z,97872.48
2019-05-25T10:52:41.806Z,97873.64
2019-05-25T10:53:46.646Z,97865.71
2019-05-25T10:54:53.376Z,97865.71
2019-05-25T10:55:56.192Z,97863.88
2019-05-25T10:57:01.324Z,97866.48
2019-05-25T10:58:04.155Z,97867.51
2019-05-25T10:59:11.013Z,97870.14
2019-05-25T11:00:14.459Z,97864.09
2019-05-25T11:01:18.377Z,97864.56
2019-05-25T11:02:21.244Z,97873.52
2019-05-25T11:03:24.732Z,97863.52
2019-05-25T11:04:27.769Z,97860.28
2019-05-25T11:05:34.275Z,97861.12
2019-05-25T11:06:38.567Z,97860.64
2019-05-25T11:07:45.924Z,97856.52
2019-05-25T11:08:48.798Z,97861.59
2019-05-25T11:09:52.822Z,97860.59
2019-05-25T11:10:55.604Z,97861.84
2019-05-25T11:11:59.125Z,97864.58
2019-05-25T11:13:02.013Z,97863.30
2019-05-25T11:14:10.532Z,97854.14
2019-05-25T11:15:20.376Z,97861.08
2019-05-25T11:16:24.017Z,97861.31
2019-05-25T11:17:28.894Z,97863.73
2019-05-25T11:18:32.389Z,97859.00
2019-05-25T11:19:37.514Z,97862.30
2019-05-25T11:20:41.574Z,97859.79
2019-05-25T11:21:44.464Z,97854.58
2019-05-25T11:22:50.945Z,97864.59
2019-05-25T11:23:55.046Z,97858.66
2019-05-25T11:24:58.551Z,97859.21
2019-05-25T11:26:01.397Z,97860.49
2019-05-25T11:27:05.333Z,97860.49
2019-05-25T11:28:08.534Z,97857.84
2019-05-25T11:29:14.897Z,97855.82
2019-05-25T11:30:18.040Z,97856.89
2019-05-25T11:31:21.489Z,97846.99
2019-05-25T11:32:26.811Z,97846.99
2019-05-25T11:33:36.298Z,97848.59
2019-05-25T11:34:38.241Z,97845.70
2019-05-25T11:35:44.732Z,97842.38
2019-05-25T11:36:47.410Z,97846.36
2019-05-25T11:37:50.955Z,97840.24
2019-05-25T11:38:53.713Z,97846.41
2019-05-25T11:39:58.453Z,97850.16
2019-05-25T11:41:01.299Z,97847.42
2019-05-25T11:42:04.715Z,97849.78
2019-05-25T11:43:10.774Z,97848.91
2019-05-25T11:44:14.515Z,97855.96
2019-05-25T11:45:17.785Z,97845.78
2019-05-25T11:46:23.897Z,97856.97
2019-05-25T11:47:26.645Z,97846.78
2019-05-25T11:48:34.141Z,97847.00
2019-05-25T11:49:37.027Z,97841.97
2019-05-25T11:50:41.265Z,97840.16
2019-05-25T11:51:44.356Z,97833.98
2019-05-25T11:52:48.255Z,97840.91
2019-05-25T11:53:51.169Z,97833.45
2019-05-25T11:54:54.599Z,97835.84
2019-05-25T11:55:57.448Z,97835.84
2019-05-25T11:57:00.913Z,97834.91
2019-05-25T11:58:03.769Z,97834.63
2019-05-25T11:59:07.521Z,97840.28
2019-05-25T12:00:24.182Z,97833.14
2019-05-25T12:01:20.604Z,97831.99
2019-05-25T12:02:27.903Z,97821.69
2019-05-25T12:03:31.535Z,97836.70
2019-05-25T12:04:34.777Z,97836.70
2019-05-25T12:05:38.616Z,97831.94
2019-05-25T12:06:41.840Z,97829.37
2019-05-25T12:07:48.145Z,97832.91
2019-05-25T12:08:51.092Z,97837.39
2019-05-25T12:09:54.792Z,97837.39
2019-05-25T12:10:57.578Z,97826.59
2019-05-25T12:12:01.426Z,97813.70
2019-05-25T12:13:04.393Z,97814.15
2019-05-25T12:14:09.370Z,97819.13
2019-05-25T12:15:12.412Z,97819.13
2019-05-25T12:16:18.976Z,97815.49
2019-05-25T12:17:22.960Z,97818.28
2019-05-25T12:18:26.927Z,97814.05
2019-05-25T12:19:32.487Z,97821.64
2019-05-25T12:20:35.993Z,97814.57
2019-05-25T12:21:38.793Z,97818.35
2019-05-25T12:22:42.309Z,97816.17
2019-05-25T12:23:45.363Z,97816.17
2019-05-25T12:24:55.330Z,97811.60
2019-05-25T12:25:58.513Z,97817.51
2019-05-25T12:27:02.356Z,97809.38
2019-05-25T12:28:05.664Z,97810.00
2019-05-25T12:29:12.576Z,97808.40
2019-05-25T12:30:17.417Z,97801.92
2019-05-25T12:31:22.302Z,97801.92
2019-05-25T12:32:25.696Z,97803.85
2019-05-25T12:33:30.408Z,97804.05
2019-05-25T12:34:34.667Z,97802.45
2019-05-25T12:35:40.898Z,97807.29
2019-05-25T12:36:43.816Z,97797.61
2019-05-25T12:37:47.596Z,97799.69
2019-05-25T12:38:50.782Z,97795.81
2019-05-25T12:39:54.314Z,97799.70
2019-05-25T12:40:57.186Z,97795.70
2019-05-25T12:42:01.448Z,97789.52
2019-05-25T12:43:04.879Z,97793.31
2019-05-25T12:44:08.784Z,97801.00
2019-05-25T12:45:14.768Z,97796.41
2019-05-25T12:46:21.486Z,97802.52
2019-05-25T12:47:24.730Z,97798.50
2019-05-25T12:48:28.419Z,97797.05
2019-05-25T12:49:49.951Z,97797.80
2019-05-25T12:50:41.302Z,97800.40
2019-05-25T12:51:45.158Z,97802.27
2019-05-25T12:52:49.809Z,97802.27
2019-05-25T12:53:52.659Z,97797.57
2019-05-25T12:54:59.385Z,97799.34
2019-05-25T12:56:02.742Z,97801.40
2019-05-25T12:57:08.019Z,97797.72
2019-05-25T12:58:11.198Z,97797.72
2019-05-25T12:59:18.357Z,97799.10
2019-05-25T13:00:27.270Z,97801.19